Terminal Aerodrome Forecast
Issued by NWS

Home | Current Version | Previous Version | Graphics & Text | Print | Product List | Glossary On
Versions: 1 2 3 4 5 6 7 8 9 10 11 12 13 14 15 16 17 18
000
FTUS43 KMPX 260913 AAA
TAFRNH
TAF AMD
KRNH 260913Z 2609/2706 31010KT P6SM OVC035
     FM261500 33012G20KT P6SM BKN040
     FM270000 35006KT P6SM SKC=

USA.gov is the U.S. government's official web portal to all federal, state and local government web resources and services.